sensor_id;sensor_type;location;lat;lon;timestamp;P1;durP1;ratioP1;P2;durP2;ratioP2
37645;SDS011;23489;49.600;6.138;2023-12-22T00:01:29;6.33;;;1.80;;
37645;SDS011;23489;49.600;6.138;2023-12-22T00:03:54;5.68;;;2.00;;
37645;SDS011;23489;49.600;6.138;2023-12-22T00:06:20;8.03;;;2.20;;
37645;SDS011;23489;49.600;6.138;2023-12-22T00:08:46;4.75;;;1.83;;
37645;SDS011;23489;49.600;6.138;2023-12-22T00:11:11;8.13;;;1.70;;
37645;SDS011;23489;49.600;6.138;2023-12-22T00:18:28;3.03;;;1.33;;
37645;SDS011;23489;49.600;6.138;2023-12-22T00:20:54;6.82;;;2.00;;
37645;SDS011;23489;49.600;6.138;2023-12-22T00:23:20;6.22;;;1.83;;
37645;SDS011;23489;49.600;6.138;2023-12-22T00:25:45;7.88;;;1.70;;
37645;SDS011;23489;49.600;6.138;2023-12-22T00:28:11;7.30;;;1.70;;
37645;SDS011;23489;49.600;6.138;2023-12-22T00:30:37;6.20;;;1.92;;
37645;SDS011;23489;49.600;6.138;2023-12-22T00:33:02;7.83;;;2.10;;
37645;SDS011;23489;49.600;6.138;2023-12-22T00:35:28;6.57;;;2.00;;
37645;SDS011;23489;49.600;6.138;2023-12-22T00:37:54;5.87;;;2.00;;
37645;SDS011;23489;49.600;6.138;2023-12-22T00:40:19;5.90;;;1.98;;
37645;SDS011;23489;49.600;6.138;2023-12-22T00:42:45;5.90;;;2.10;;
37645;SDS011;23489;49.600;6.138;2023-12-22T00:47:37;7.57;;;2.22;;
37645;SDS011;23489;49.600;6.138;2023-12-22T00:50:03;5.05;;;1.77;;
37645;SDS011;23489;49.600;6.138;2023-12-22T00:52:30;6.57;;;1.80;;
37645;SDS011;23489;49.600;6.138;2023-12-22T00:54:56;5.68;;;1.67;;
37645;SDS011;23489;49.600;6.138;2023-12-22T00:57:22;2.25;;;1.38;;
37645;SDS011;23489;49.600;6.138;2023-12-22T00:59:48;4.15;;;1.88;;
37645;SDS011;23489;49.600;6.138;2023-12-22T01:02:14;4.75;;;1.75;;
37645;SDS011;23489;49.600;6.138;2023-12-22T01:04:40;4.47;;;1.52;;
37645;SDS011;23489;49.600;6.138;2023-12-22T01:07:09;4.65;;;1.92;;
37645;SDS011;23489;49.600;6.138;2023-12-22T01:09:39;3.08;;;1.35;;
37645;SDS011;23489;49.600;6.138;2023-12-22T02:12:50;7.93;;;1.92;;
37645;SDS011;23489;49.600;6.138;2023-12-22T02:15:16;3.40;;;1.17;;
37645;SDS011;23489;49.600;6.138;2023-12-22T02:17:49;6.53;;;1.50;;
37645;SDS011;23489;49.600;6.138;2023-12-22T02:20:32;4.47;;;1.10;;
37645;SDS011;23489;49.600;6.138;2023-12-22T02:22:57;1.75;;;0.95;;
37645;SDS011;23489;49.600;6.138;2023-12-22T02:25:23;5.18;;;1.45;;
37645;SDS011;23489;49.600;6.138;2023-12-22T02:27:50;4.63;;;1.02;;
37645;SDS011;23489;49.600;6.138;2023-12-22T02:30:32;3.88;;;1.10;;
37645;SDS011;23489;49.600;6.138;2023-12-22T02:33:03;3.95;;;0.85;;
37645;SDS011;23489;49.600;6.138;2023-12-22T02:35:30;4.35;;;0.90;;
37645;SDS011;23489;49.600;6.138;2023-12-22T02:37:59;2.58;;;1.27;;
37645;SDS011;23489;49.600;6.138;2023-12-22T04:56:38;14.77;;;2.90;;
37645;SDS011;23489;49.600;6.138;2023-12-22T04:59:04;11.50;;;2.92;;
37645;SDS011;23489;49.600;6.138;2023-12-22T05:01:29;12.65;;;2.35;;
37645;SDS011;23489;49.600;6.138;2023-12-22T05:03:55;11.45;;;2.67;;
37645;SDS011;23489;49.600;6.138;2023-12-22T05:06:21;10.38;;;2.63;;
37645;SDS011;23489;49.600;6.138;2023-12-22T15:15:12;0.77;;;0.77;;
37645;SDS011;23489;49.600;6.138;2023-12-22T15:17:38;2.13;;;1.00;;
37645;SDS011;23489;49.600;6.138;2023-12-22T15:20:04;2.60;;;0.90;;
37645;SDS011;23489;49.600;6.138;2023-12-22T15:27:22;1.77;;;0.68;;
37645;SDS011;23489;49.600;6.138;2023-12-22T15:29:49;1.00;;;0.90;;
37645;SDS011;23489;49.600;6.138;2023-12-22T15:32:14;2.22;;;0.90;;
37645;SDS011;23489;49.600;6.138;2023-12-22T15:34:41;2.22;;;0.70;;
37645;SDS011;23489;49.600;6.138;2023-12-22T15:37:07;1.33;;;0.90;;
37645;SDS011;23489;49.600;6.138;2023-12-22T15:39:33;3.90;;;1.20;;
37645;SDS011;23489;49.600;6.138;2023-12-22T15:41:59;1.35;;;1.17;;
37645;SDS011;23489;49.600;6.138;2023-12-22T15:44:25;3.75;;;1.30;;
37645;SDS011;23489;49.600;6.138;2023-12-22T15:46:54;5.50;;;1.35;;
37645;SDS011;23489;49.600;6.138;2023-12-22T15:49:19;2.10;;;1.15;;
37645;SDS011;23489;49.600;6.138;2023-12-22T15:51:46;3.92;;;1.52;;
37645;SDS011;23489;49.600;6.138;2023-12-22T15:54:11;1.10;;;0.93;;
37645;SDS011;23489;49.600;6.138;2023-12-22T15:56:37;2.22;;;1.02;;
37645;SDS011;23489;49.600;6.138;2023-12-22T17:05:05;3.10;;;1.67;;
37645;SDS011;23489;49.600;6.138;2023-12-22T17:46:29;4.57;;;1.90;;
37645;SDS011;23489;49.600;6.138;2023-12-22T17:48:55;4.32;;;2.35;;
37645;SDS011;23489;49.600;6.138;2023-12-22T17:53:46;2.85;;;1.50;;
37645;SDS011;23489;49.600;6.138;2023-12-22T17:56:12;2.63;;;1.70;;
37645;SDS011;23489;49.600;6.138;2023-12-22T17:58:38;1.75;;;0.75;;
37645;SDS011;23489;49.600;6.138;2023-12-22T19:45:39;3.97;;;2.30;;
37645;SDS011;23489;49.600;6.138;2023-12-22T19:48:08;4.82;;;1.80;;
37645;SDS011;23489;49.600;6.138;2023-12-22T19:50:34;4.40;;;1.50;;
37645;SDS011;23489;49.600;6.138;2023-12-22T19:52:59;5.18;;;1.77;;
37645;SDS011;23489;49.600;6.138;2023-12-22T19:55:28;4.85;;;1.75;;
37645;SDS011;23489;49.600;6.138;2023-12-22T19:57:56;9.38;;;2.00;;
37645;SDS011;23489;49.600;6.138;2023-12-22T20:00:22;6.28;;;2.30;;
37645;SDS011;23489;49.600;6.138;2023-12-22T20:02:47;8.23;;;2.05;;
37645;SDS011;23489;49.600;6.138;2023-12-22T20:05:13;6.13;;;2.05;;
37645;SDS011;23489;49.600;6.138;2023-12-22T20:07:40;5.25;;;2.20;;
37645;SDS011;23489;49.600;6.138;2023-12-22T20:10:06;7.57;;;2.30;;
37645;SDS011;23489;49.600;6.138;2023-12-22T20:12:32;2.83;;;1.67;;
37645;SDS011;23489;49.600;6.138;2023-12-22T20:14:58;5.88;;;2.13;;
37645;SDS011;23489;49.600;6.138;2023-12-22T20:17:24;6.15;;;1.83;;
37645;SDS011;23489;49.600;6.138;2023-12-22T20:19:50;5.78;;;2.00;;
37645;SDS011;23489;49.600;6.138;2023-12-22T20:24:41;6.70;;;2.38;;
37645;SDS011;23489;49.600;6.138;2023-12-22T20:31:58;6.25;;;1.95;;
37645;SDS011;23489;49.600;6.138;2023-12-22T20:44:07;8.23;;;2.20;;
37645;SDS011;23489;49.600;6.138;2023-12-22T20:46:32;5.65;;;2.63;;
37645;SDS011;23489;49.600;6.138;2023-12-22T20:48:58;9.57;;;2.22;;
37645;SDS011;23489;49.600;6.138;2023-12-22T20:51:24;10.13;;;2.60;;
37645;SDS011;23489;49.600;6.138;2023-12-22T20:53:49;5.50;;;2.10;;
37645;SDS011;23489;49.600;6.138;2023-12-22T20:56:19;10.05;;;2.80;;
37645;SDS011;23489;49.600;6.138;2023-12-22T20:58:46;6.45;;;2.45;;
37645;SDS011;23489;49.600;6.138;2023-12-22T21:01:12;9.15;;;2.80;;
37645;SDS011;23489;49.600;6.138;2023-12-22T21:08:31;8.55;;;2.47;;
37645;SDS011;23489;49.600;6.138;2023-12-22T21:11:00;7.40;;;2.30;;
37645;SDS011;23489;49.600;6.138;2023-12-22T21:13:28;13.05;;;2.75;;
37645;SDS011;23489;49.600;6.138;2023-12-22T21:42:40;7.15;;;2.40;;
37645;SDS011;23489;49.600;6.138;2023-12-22T22:36:11;7.15;;;1.90;;
37645;SDS011;23489;49.600;6.138;2023-12-22T22:38:37;14.63;;;3.00;;
37645;SDS011;23489;49.600;6.138;2023-12-22T22:41:07;8.10;;;2.65;;
37645;SDS011;23489;49.600;6.138;2023-12-22T22:43:34;9.38;;;2.85;;
37645;SDS011;23489;49.600;6.138;2023-12-22T22:46:00;11.52;;;2.70;;
37645;SDS011;23489;49.600;6.138;2023-12-22T22:48:26;11.13;;;2.40;;
